createdAt,value
2022-09-26T00:04:19.252Z,48.80
2022-09-26T00:09:26.348Z,48.76
2022-09-26T00:14:30.312Z,48.93
2022-09-26T00:19:32.959Z,48.91
2022-09-26T00:24:35.825Z,49.02
2022-09-26T00:29:39.789Z,48.89
2022-09-26T00:34:42.701Z,49.07
2022-09-26T00:39:45.315Z,49.09
2022-09-26T00:44:50.391Z,48.70
2022-09-26T00:49:54.663Z,48.81
2022-09-26T00:54:57.902Z,48.69
2022-09-26T01:00:03.391Z,48.72
2022-09-26T01:05:06.787Z,48.91
2022-09-26T01:10:10.195Z,48.88
2022-09-26T01:15:15.674Z,48.69
2022-09-26T01:20:24.920Z,48.65
2022-09-26T01:25:32.788Z,48.77
2022-09-26T01:30:39.503Z,48.86
2022-09-26T01:35:52.654Z,48.45
2022-09-26T01:41:05.353Z,48.84
2022-09-26T01:46:14.601Z,48.77
2022-09-26T01:51:20.607Z,48.75
2022-09-26T01:56:24.786Z,48.92
2022-09-26T02:01:29.993Z,48.99
2022-09-26T02:06:36.030Z,48.94
2022-09-26T02:11:38.939Z,49.22
2022-09-26T02:16:46.221Z,49.10
2022-09-26T02:21:49.891Z,49.26
2022-09-26T02:26:53.595Z,49.36
2022-09-26T02:31:58.623Z,49.63
2022-09-26T02:37:01.908Z,49.72
2022-09-26T02:42:13.577Z,49.80
2022-09-26T02:47:34.936Z,49.86
2022-09-26T02:52:43.103Z,50.40
2022-09-26T02:57:48.541Z,50.36
2022-09-26T03:02:56.566Z,50.64
2022-09-26T03:08:00.650Z,50.45
2022-09-26T03:13:05.783Z,50.73
2022-09-26T03:18:12.862Z,50.95
2022-09-26T03:23:15.902Z,51.03
2022-09-26T03:28:19.716Z,51.09
2022-09-26T03:33:23.639Z,51.12
2022-09-26T03:38:26.625Z,51.21
2022-09-26T03:43:43.677Z,51.50
2022-09-26T03:48:49.065Z,51.56
2022-09-26T03:53:51.756Z,51.47
2022-09-26T03:58:56.836Z,51.39
2022-09-26T04:04:01.084Z,51.39
2022-09-26T04:09:04.352Z,51.56
2022-09-26T04:14:08.063Z,51.55
2022-09-26T04:19:13.042Z,51.48
2022-09-26T04:24:16.900Z,51.58
2022-09-26T04:29:19.485Z,51.47
2022-09-26T04:34:35.130Z,51.74
2022-09-26T04:39:37.891Z,51.71
2022-09-26T04:44:40.540Z,51.61
2022-09-26T04:49:45.067Z,51.75
2022-09-26T04:54:47.857Z,51.86
2022-09-26T04:59:50.448Z,51.83
2022-09-26T05:04:55.095Z,51.89
2022-09-26T05:09:58.026Z,51.86
2022-09-26T05:15:08.615Z,52.09
2022-09-26T05:20:14.218Z,52.14
2022-09-26T05:25:53.704Z,52.21
2022-09-26T05:30:56.869Z,52.13
2022-09-26T05:41:03.903Z,52.06
2022-09-26T05:46:08.101Z,52.14
2022-09-26T05:51:17.049Z,51.87
2022-09-26T05:56:20.390Z,52.00
2022-09-26T06:02:01.429Z,52.28
2022-09-26T06:07:34.889Z,52.21
2022-09-26T06:12:39.613Z,52.20
2022-09-26T06:17:42.280Z,52.14
2022-09-26T06:22:47.147Z,52.28
2022-09-26T06:27:50.295Z,52.14
2022-09-26T06:32:53.295Z,51.98
2022-09-26T06:38:16.581Z,52.07
2022-09-26T06:43:19.298Z,51.80
2022-09-26T06:48:40.391Z,51.83
2022-09-26T06:53:57.515Z,51.75
2022-09-26T06:59:03.726Z,51.68
2022-09-26T07:04:11.617Z,51.19
2022-09-26T07:09:21.588Z,50.73
2022-09-26T07:14:30.945Z,50.70
2022-09-26T07:19:39.898Z,50.29
2022-09-26T07:24:48.716Z,49.84
2022-09-26T07:29:51.365Z,45.97
2022-09-26T07:34:56.334Z,46.53
2022-09-26T07:40:01.864Z,46.76
2022-09-26T07:45:26.124Z,46.82
2022-09-26T07:50:31.103Z,47.22
2022-09-26T07:56:01.458Z,47.10
2022-09-26T08:01:30.283Z,47.29
2022-09-26T08:06:36.662Z,46.98
2022-09-26T08:11:41.746Z,47.21
2022-09-26T08:17:14.098Z,47.36
2022-09-26T08:22:17.071Z,47.55
2022-09-26T08:27:22.647Z,47.46
2022-09-26T08:32:25.511Z,47.59
2022-09-26T08:37:28.802Z,47.64
2022-09-26T08:42:57.333Z,48.04
2022-09-26T08:48:36.901Z,48.21
2022-09-26T08:53:49.179Z,47.97
2022-09-26T08:58:53.790Z,48.23
2022-09-26T09:04:03.166Z,50.49
2022-09-26T09:09:06.355Z,50.36
2022-09-26T09:15:25.791Z,51.04
2022-09-26T09:20:46.777Z,51.12
2022-09-26T09:31:42.879Z,51.12
2022-09-26T09:36:58.949Z,51.05
2022-09-26T09:42:21.620Z,51.01
2022-09-26T09:47:28.252Z,50.92
2022-09-26T09:52:40.055Z,50.69
2022-09-26T09:57:53.371Z,50.43
2022-09-26T10:03:02.183Z,50.19
2022-09-26T10:08:13.132Z,49.96
2022-09-26T10:13:34.816Z,50.05
2022-09-26T10:19:02.314Z,49.81
2022-09-26T10:24:06.605Z,49.63
2022-09-26T10:29:23.276Z,51.67
2022-09-26T10:34:28.303Z,52.33
2022-09-26T10:39:48.676Z,40.68
2022-09-26T10:44:51.451Z,41.55
2022-09-26T10:49:59.238Z,44.24
2022-09-26T10:55:24.801Z,44.87
2022-09-26T11:00:37.474Z,45.27
2022-09-26T11:05:58.081Z,45.21
2022-09-26T11:11:11.161Z,45.26
2022-09-26T11:16:19.077Z,45.35
2022-09-26T11:21:29.346Z,45.61
2022-09-26T11:26:35.984Z,45.74
2022-09-26T11:31:40.951Z,45.41
2022-09-26T11:37:22.069Z,45.73
2022-09-26T11:42:30.681Z,45.95
2022-09-26T11:47:50.022Z,46.24
2022-09-26T11:53:11.034Z,46.29
2022-09-26T11:58:16.748Z,46.35
2022-09-26T12:03:29.893Z,46.49
2022-09-26T12:08:42.626Z,46.05
2022-09-26T12:13:52.214Z,46.47
2022-09-26T12:18:59.384Z,46.45
2022-09-26T12:24:07.172Z,45.84
2022-09-26T12:29:16.911Z,45.89
2022-09-26T12:34:37.175Z,46.00
2022-09-26T12:39:49.066Z,46.11
2022-09-26T12:44:58.569Z,45.98
2022-09-26T12:50:08.669Z,45.98
2022-09-26T12:55:19.408Z,43.79
2022-09-26T13:00:23.054Z,44.91
2022-09-26T13:05:46.177Z,45.00
2022-09-26T13:11:00.871Z,45.00
2022-09-26T13:16:14.209Z,44.76
2022-09-26T13:21:18.926Z,44.68
2022-09-26T13:26:25.991Z,44.12
2022-09-26T13:31:32.734Z,44.41
2022-09-26T13:36:35.522Z,44.55
2022-09-26T13:41:42.105Z,43.54
2022-09-26T13:46:52.339Z,43.21
2022-09-26T13:52:03.301Z,43.38
2022-09-26T13:57:27.699Z,43.62
2022-09-26T14:02:31.858Z,44.36
2022-09-26T14:08:07.458Z,44.50
2022-09-26T14:13:20.051Z,44.72
2022-09-26T14:18:30.105Z,44.57
2022-09-26T14:23:41.077Z,45.15
2022-09-26T14:28:52.866Z,45.15
2022-09-26T14:34:06.403Z,45.48
2022-09-26T14:39:35.770Z,45.54
2022-09-26T14:44:40.534Z,45.77
2022-09-26T14:49:43.210Z,45.54
2022-09-26T14:54:45.869Z,45.31
2022-09-26T14:59:49.882Z,45.86
2022-09-26T15:05:01.245Z,46.13
2022-09-26T15:10:05.830Z,46.47
2022-09-26T15:15:18.247Z,46.24
2022-09-26T15:20:21.780Z,45.16
2022-09-26T15:25:25.735Z,43.93
2022-09-26T15:30:37.051Z,44.66
2022-09-26T15:35:39.885Z,45.20
2022-09-26T15:40:42.658Z,45.51
2022-09-26T15:45:56.385Z,45.73
2022-09-26T15:51:02.182Z,45.83
2022-09-26T15:56:06.581Z,46.00
2022-09-26T16:01:11.062Z,46.35
2022-09-26T16:06:32.061Z,46.38
2022-09-26T16:11:34.717Z,46.42
2022-09-26T16:16:38.773Z,46.95
2022-09-26T16:21:41.454Z,47.12
2022-09-26T16:26:44.125Z,38.76
2022-09-26T16:31:48.191Z,36.99
2022-09-26T16:36:51.054Z,40.88
2022-09-26T16:42:02.425Z,40.72
2022-09-26T16:47:18.886Z,41.66
2022-09-26T16:52:28.530Z,42.47
2022-09-26T16:57:33.309Z,42.75
2022-09-26T17:02:39.015Z,43.10
2022-09-26T17:07:42.245Z,43.26
2022-09-26T17:12:50.499Z,43.67
2022-09-26T17:17:54.904Z,44.05
2022-09-26T17:22:57.595Z,44.21
2022-09-26T17:28:02.352Z,44.69
2022-09-26T17:33:06.374Z,44.54
2022-09-26T17:38:11.700Z,44.69
2022-09-26T17:43:14.632Z,44.67
2022-09-26T17:48:21.199Z,44.79
2022-09-26T17:53:24.353Z,44.78
2022-09-26T17:58:27.041Z,44.77
2022-09-26T18:03:32.685Z,44.84
2022-09-26T18:08:37.130Z,44.76
2022-09-26T18:13:41.600Z,44.91
2022-09-26T18:18:45.657Z,44.91
2022-09-26T18:23:51.593Z,45.01
2022-09-26T18:28:55.654Z,45.38
2022-09-26T18:33:59.961Z,45.91
2022-09-26T18:39:02.630Z,45.87
2022-09-26T18:44:05.398Z,45.79
2022-09-26T18:49:12.713Z,45.95
2022-09-26T18:54:17.188Z,46.11
2022-09-26T18:59:20.402Z,46.17
2022-09-26T19:04:26.065Z,46.23
2022-09-26T19:09:31.749Z,46.20
2022-09-26T19:14:35.493Z,46.39
2022-09-26T19:19:40.053Z,46.16
2022-09-26T19:24:43.765Z,46.26
2022-09-26T19:29:48.642Z,46.40
2022-09-26T19:34:54.549Z,46.35
2022-09-26T19:39:57.777Z,46.41
2022-09-26T19:45:01.005Z,46.37
2022-09-26T19:50:05.722Z,46.23
2022-09-26T19:55:13.817Z,46.35
2022-09-26T20:00:17.648Z,46.47
2022-09-26T20:05:22.475Z,46.28
2022-09-26T20:10:25.635Z,46.26
2022-09-26T20:15:28.335Z,46.45
2022-09-26T20:20:32.616Z,46.29
2022-09-26T20:25:37.473Z,46.30
2022-09-26T20:30:52.332Z,46.43
2022-09-26T20:36:02.612Z,46.54
2022-09-26T20:41:12.888Z,46.58
2022-09-26T20:46:16.704Z,46.62
2022-09-26T20:51:21.762Z,46.50
2022-09-26T20:56:24.448Z,46.50
2022-09-26T21:01:27.675Z,46.50
2022-09-26T21:06:34.261Z,46.64
2022-09-26T21:11:36.926Z,46.78
2022-09-26T21:16:47.022Z,46.66
2022-09-26T21:21:53.724Z,46.69
2022-09-26T21:27:14.950Z,46.59
2022-09-26T21:32:20.196Z,46.63
2022-09-26T21:37:24.403Z,46.72
2022-09-26T21:42:27.113Z,46.56
2022-09-26T21:47:29.754Z,46.80
2022-09-26T21:52:35.198Z,46.70
2022-09-26T21:57:39.718Z,46.61
2022-09-26T22:02:42.430Z,46.76
2022-09-26T22:07:46.480Z,46.87
2022-09-26T22:12:49.098Z,46.87
2022-09-26T22:17:51.960Z,47.04
2022-09-26T22:22:56.205Z,47.40
2022-09-26T22:27:58.885Z,47.52
2022-09-26T22:33:01.557Z,47.75
2022-09-26T22:38:05.669Z,47.90
2022-09-26T22:43:08.328Z,48.07
2022-09-26T22:48:10.989Z,48.26
2022-09-26T22:53:15.009Z,48.30
2022-09-26T22:58:17.761Z,48.45
2022-09-26T23:03:20.574Z,48.40
2022-09-26T23:08:24.606Z,48.90
2022-09-26T23:13:27.377Z,49.02
2022-09-26T23:18:30.885Z,49.34
2022-09-26T23:23:34.881Z,49.58
2022-09-26T23:28:37.686Z,49.88
2022-09-26T23:33:40.400Z,49.93
2022-09-26T23:38:45.110Z,50.03
2022-09-26T23:43:47.756Z,49.98
2022-09-26T23:48:50.667Z,50.07
2022-09-26T23:53:54.932Z,50.27
2022-09-26T23:58:57.839Z,50.33
